sensor_id;sensor_type;location;lat;lon;timestamp;P1;durP1;ratioP1;P2;durP2;ratioP2
1402;SDS011;696;48.546;9.896;2022-07-29T00:01:13;9.93;;;3.10;;
1402;SDS011;696;48.546;9.896;2022-07-29T00:03:40;2.92;;;1.95;;
1402;SDS011;696;48.546;9.896;2022-07-29T00:06:05;3.10;;;2.80;;
1402;SDS011;696;48.546;9.896;2022-07-29T00:08:31;3.08;;;2.60;;
1402;SDS011;696;48.546;9.896;2022-07-29T00:10:56;3.35;;;2.35;;
1402;SDS011;696;48.546;9.896;2022-07-29T00:13:21;9.30;;;2.75;;
1402;SDS011;696;48.546;9.896;2022-07-29T00:15:47;3.20;;;2.75;;
1402;SDS011;696;48.546;9.896;2022-07-29T00:18:12;3.90;;;2.70;;
1402;SDS011;696;48.546;9.896;2022-07-29T00:20:37;3.15;;;2.15;;
1402;SDS011;696;48.546;9.896;2022-07-29T00:23:03;4.88;;;3.10;;
1402;SDS011;696;48.546;9.896;2022-07-29T00:25:28;4.43;;;2.75;;
1402;SDS011;696;48.546;9.896;2022-07-29T00:27:53;5.05;;;2.05;;
1402;SDS011;696;48.546;9.896;2022-07-29T00:30:19;6.57;;;3.25;;
1402;SDS011;696;48.546;9.896;2022-07-29T00:32:44;3.13;;;2.30;;
1402;SDS011;696;48.546;9.896;2022-07-29T00:35:10;4.03;;;2.47;;
1402;SDS011;696;48.546;9.896;2022-07-29T00:37:54;3.85;;;2.47;;
1402;SDS011;696;48.546;9.896;2022-07-29T00:40:19;3.45;;;2.53;;
1402;SDS011;696;48.546;9.896;2022-07-29T00:42:45;2.22;;;1.90;;
1402;SDS011;696;48.546;9.896;2022-07-29T00:45:12;2.65;;;2.22;;
1402;SDS011;696;48.546;9.896;2022-07-29T00:47:38;5.70;;;2.70;;
1402;SDS011;696;48.546;9.896;2022-07-29T00:50:04;5.47;;;2.35;;
1402;SDS011;696;48.546;9.896;2022-07-29T00:52:31;6.68;;;2.72;;
1402;SDS011;696;48.546;9.896;2022-07-29T00:54:57;3.08;;;2.13;;
1402;SDS011;696;48.546;9.896;2022-07-29T00:57:23;4.32;;;2.72;;
1402;SDS011;696;48.546;9.896;2022-07-29T00:59:48;3.78;;;2.63;;
1402;SDS011;696;48.546;9.896;2022-07-29T01:02:13;3.75;;;2.45;;
1402;SDS011;696;48.546;9.896;2022-07-29T01:04:39;17.38;;;3.28;;
1402;SDS011;696;48.546;9.896;2022-07-29T01:07:05;3.75;;;2.90;;
1402;SDS011;696;48.546;9.896;2022-07-29T01:09:31;4.38;;;2.83;;
1402;SDS011;696;48.546;9.896;2022-07-29T01:11:57;3.30;;;2.38;;
1402;SDS011;696;48.546;9.896;2022-07-29T01:14:23;3.60;;;2.42;;
1402;SDS011;696;48.546;9.896;2022-07-29T01:16:54;5.40;;;2.20;;
1402;SDS011;696;48.546;9.896;2022-07-29T01:27:38;6.32;;;2.67;;
1402;SDS011;696;48.546;9.896;2022-07-29T01:30:17;4.15;;;2.78;;
1402;SDS011;696;48.546;9.896;2022-07-29T01:32:43;6.53;;;3.40;;
1402;SDS011;696;48.546;9.896;2022-07-29T01:35:20;4.90;;;2.88;;
1402;SDS011;696;48.546;9.896;2022-07-29T01:37:54;7.13;;;2.95;;
1402;SDS011;696;48.546;9.896;2022-07-29T01:40:27;3.95;;;3.03;;
1402;SDS011;696;48.546;9.896;2022-07-29T01:42:56;3.95;;;2.42;;
1402;SDS011;696;48.546;9.896;2022-07-29T01:45:26;5.25;;;2.20;;
1402;SDS011;696;48.546;9.896;2022-07-29T01:53:38;5.28;;;3.08;;
1402;SDS011;696;48.546;9.896;2022-07-29T01:56:08;3.15;;;2.55;;
1402;SDS011;696;48.546;9.896;2022-07-29T01:58:35;6.20;;;3.47;;
1402;SDS011;696;48.546;9.896;2022-07-29T02:01:01;6.57;;;3.13;;
1402;SDS011;696;48.546;9.896;2022-07-29T02:03:27;3.85;;;2.65;;
1402;SDS011;696;48.546;9.896;2022-07-29T02:05:54;6.15;;;2.92;;
1402;SDS011;696;48.546;9.896;2022-07-29T02:08:20;5.22;;;2.80;;
1402;SDS011;696;48.546;9.896;2022-07-29T02:10:47;3.50;;;3.03;;
1402;SDS011;696;48.546;9.896;2022-07-29T02:13:13;6.70;;;3.25;;
1402;SDS011;696;48.546;9.896;2022-07-29T02:15:41;3.95;;;2.97;;
1402;SDS011;696;48.546;9.896;2022-07-29T02:18:09;9.55;;;3.25;;
1402;SDS011;696;48.546;9.896;2022-07-29T02:20:37;3.42;;;2.25;;
1402;SDS011;696;48.546;9.896;2022-07-29T02:23:03;3.92;;;2.53;;
1402;SDS011;696;48.546;9.896;2022-07-29T02:25:30;9.70;;;3.63;;
1402;SDS011;696;48.546;9.896;2022-07-29T02:27:55;6.30;;;3.58;;
1402;SDS011;696;48.546;9.896;2022-07-29T02:30:22;5.07;;;3.10;;
1402;SDS011;696;48.546;9.896;2022-07-29T02:32:48;5.68;;;3.47;;
1402;SDS011;696;48.546;9.896;2022-07-29T02:35:15;8.50;;;3.15;;
1402;SDS011;696;48.546;9.896;2022-07-29T02:37:41;8.70;;;3.58;;
1402;SDS011;696;48.546;9.896;2022-07-29T02:40:09;5.78;;;3.50;;
1402;SDS011;696;48.546;9.896;2022-07-29T02:42:36;6.40;;;3.15;;
1402;SDS011;696;48.546;9.896;2022-07-29T02:45:03;7.03;;;3.05;;
1402;SDS011;696;48.546;9.896;2022-07-29T02:50:15;3.33;;;2.70;;
1402;SDS011;696;48.546;9.896;2022-07-29T02:52:44;6.05;;;3.28;;
1402;SDS011;696;48.546;9.896;2022-07-29T02:55:26;5.30;;;3.83;;
1402;SDS011;696;48.546;9.896;2022-07-29T02:58:03;4.70;;;3.00;;
1402;SDS011;696;48.546;9.896;2022-07-29T03:00:34;6.82;;;3.80;;
1402;SDS011;696;48.546;9.896;2022-07-29T03:03:03;6.07;;;3.58;;
1402;SDS011;696;48.546;9.896;2022-07-29T03:05:31;6.18;;;2.80;;
1402;SDS011;696;48.546;9.896;2022-07-29T03:07:58;3.92;;;2.72;;
1402;SDS011;696;48.546;9.896;2022-07-29T03:10:27;4.38;;;2.58;;
1402;SDS011;696;48.546;9.896;2022-07-29T03:12:52;5.32;;;2.97;;
1402;SDS011;696;48.546;9.896;2022-07-29T03:15:19;5.65;;;3.55;;
1402;SDS011;696;48.546;9.896;2022-07-29T03:17:45;5.72;;;2.92;;
1402;SDS011;696;48.546;9.896;2022-07-29T03:20:11;8.20;;;3.67;;
1402;SDS011;696;48.546;9.896;2022-07-29T03:22:40;4.53;;;3.05;;
1402;SDS011;696;48.546;9.896;2022-07-29T03:25:11;4.18;;;2.30;;
1402;SDS011;696;48.546;9.896;2022-07-29T03:27:38;5.80;;;3.38;;
1402;SDS011;696;48.546;9.896;2022-07-29T03:30:04;7.38;;;4.22;;
1402;SDS011;696;48.546;9.896;2022-07-29T03:32:30;6.78;;;3.65;;
1402;SDS011;696;48.546;9.896;2022-07-29T03:34:56;6.10;;;3.78;;
1402;SDS011;696;48.546;9.896;2022-07-29T03:37:21;7.03;;;3.35;;
1402;SDS011;696;48.546;9.896;2022-07-29T03:39:47;6.95;;;3.33;;
1402;SDS011;696;48.546;9.896;2022-07-29T03:42:13;4.05;;;2.78;;
1402;SDS011;696;48.546;9.896;2022-07-29T03:44:40;4.63;;;3.28;;
1402;SDS011;696;48.546;9.896;2022-07-29T03:47:07;6.10;;;2.90;;
1402;SDS011;696;48.546;9.896;2022-07-29T03:49:33;7.10;;;3.63;;
1402;SDS011;696;48.546;9.896;2022-07-29T03:52:00;6.03;;;3.42;;
1402;SDS011;696;48.546;9.896;2022-07-29T03:54:26;5.45;;;2.92;;
1402;SDS011;696;48.546;9.896;2022-07-29T03:56:51;4.18;;;3.35;;
1402;SDS011;696;48.546;9.896;2022-07-29T03:59:17;5.70;;;3.67;;
1402;SDS011;696;48.546;9.896;2022-07-29T04:01:44;6.60;;;3.50;;
1402;SDS011;696;48.546;9.896;2022-07-29T04:04:10;3.92;;;2.88;;
1402;SDS011;696;48.546;9.896;2022-07-29T04:06:40;5.40;;;2.85;;
1402;SDS011;696;48.546;9.896;2022-07-29T04:09:07;6.28;;;3.92;;
1402;SDS011;696;48.546;9.896;2022-07-29T04:11:32;5.95;;;3.58;;
1402;SDS011;696;48.546;9.896;2022-07-29T04:13:58;5.57;;;3.33;;
1402;SDS011;696;48.546;9.896;2022-07-29T04:16:23;6.15;;;3.28;;
1402;SDS011;696;48.546;9.896;2022-07-29T04:18:48;4.03;;;2.50;;
1402;SDS011;696;48.546;9.896;2022-07-29T04:21:14;4.57;;;2.92;;
1402;SDS011;696;48.546;9.896;2022-07-29T04:23:39;3.78;;;3.10;;
1402;SDS011;696;48.546;9.896;2022-07-29T04:26:06;5.18;;;3.67;;
1402;SDS011;696;48.546;9.896;2022-07-29T04:28:34;8.07;;;3.38;;
1402;SDS011;696;48.546;9.896;2022-07-29T04:31:00;6.68;;;3.25;;
1402;SDS011;696;48.546;9.896;2022-07-29T04:33:25;6.28;;;3.17;;
1402;SDS011;696;48.546;9.896;2022-07-29T04:35:51;5.20;;;3.53;;
1402;SDS011;696;48.546;9.896;2022-07-29T04:38:16;6.97;;;3.30;;
1402;SDS011;696;48.546;9.896;2022-07-29T04:40:41;4.13;;;3.40;;
1402;SDS011;696;48.546;9.896;2022-07-29T04:43:07;4.57;;;2.88;;
1402;SDS011;696;48.546;9.896;2022-07-29T04:45:32;5.40;;;3.10;;
1402;SDS011;696;48.546;9.896;2022-07-29T04:47:57;5.55;;;3.25;;
1402;SDS011;696;48.546;9.896;2022-07-29T04:50:23;4.93;;;2.90;;
1402;SDS011;696;48.546;9.896;2022-07-29T04:52:48;3.75;;;2.75;;
1402;SDS011;696;48.546;9.896;2022-07-29T04:55:14;3.10;;;2.45;;
1402;SDS011;696;48.546;9.896;2022-07-29T04:57:39;4.93;;;2.45;;
1402;SDS011;696;48.546;9.896;2022-07-29T05:00:05;3.15;;;2.22;;
1402;SDS011;696;48.546;9.896;2022-07-29T05:02:31;6.47;;;2.80;;
1402;SDS011;696;48.546;9.896;2022-07-29T05:04:57;14.65;;;3.83;;
1402;SDS011;696;48.546;9.896;2022-07-29T05:07:22;4.10;;;3.08;;
1402;SDS011;696;48.546;9.896;2022-07-29T05:09:48;3.70;;;2.72;;
1402;SDS011;696;48.546;9.896;2022-07-29T05:12:13;4.07;;;2.25;;
1402;SDS011;696;48.546;9.896;2022-07-29T05:14:39;3.70;;;2.33;;
1402;SDS011;696;48.546;9.896;2022-07-29T05:17:04;4.45;;;2.72;;
1402;SDS011;696;48.546;9.896;2022-07-29T05:19:30;8.68;;;3.00;;
1402;SDS011;696;48.546;9.896;2022-07-29T05:21:55;6.70;;;2.00;;
1402;SDS011;696;48.546;9.896;2022-07-29T05:24:21;2.50;;;2.28;;
1402;SDS011;696;48.546;9.896;2022-07-29T05:26:46;2.47;;;1.65;;
1402;SDS011;696;48.546;9.896;2022-07-29T05:29:11;2.85;;;1.70;;
1402;SDS011;696;48.546;9.896;2022-07-29T05:31:37;4.18;;;1.77;;
1402;SDS011;696;48.546;9.896;2022-07-29T05:34:02;8.55;;;2.50;;
1402;SDS011;696;48.546;9.896;2022-07-29T05:36:27;2.75;;;1.75;;
1402;SDS011;696;48.546;9.896;2022-07-29T05:38:53;2.63;;;1.63;;
1402;SDS011;696;48.546;9.896;2022-07-29T05:41:18;2.67;;;1.85;;
1402;SDS011;696;48.546;9.896;2022-07-29T05:43:44;3.42;;;2.13;;
1402;SDS011;696;48.546;9.896;2022-07-29T05:46:09;2.13;;;1.60;;
1402;SDS011;696;48.546;9.896;2022-07-29T05:48:35;13.13;;;2.13;;
1402;SDS011;696;48.546;9.896;2022-07-29T05:51:00;7.10;;;2.38;;
1402;SDS011;696;48.546;9.896;2022-07-29T05:53:26;3.90;;;2.53;;
1402;SDS011;696;48.546;9.896;2022-07-29T05:55:51;11.95;;;2.22;;
1402;SDS011;696;48.546;9.896;2022-07-29T05:58:17;2.28;;;1.50;;
1402;SDS011;696;48.546;9.896;2022-07-29T06:00:42;4.85;;;2.30;;
1402;SDS011;696;48.546;9.896;2022-07-29T06:03:08;5.57;;;2.22;;
1402;SDS011;696;48.546;9.896;2022-07-29T06:05:33;5.72;;;2.03;;
1402;SDS011;696;48.546;9.896;2022-07-29T06:07:59;4.40;;;2.28;;
1402;SDS011;696;48.546;9.896;2022-07-29T06:10:24;3.45;;;1.83;;
1402;SDS011;696;48.546;9.896;2022-07-29T06:12:49;5.25;;;1.45;;
1402;SDS011;696;48.546;9.896;2022-07-29T06:15:15;2.17;;;1.13;;
1402;SDS011;696;48.546;9.896;2022-07-29T06:17:40;3.20;;;2.10;;
1402;SDS011;696;48.546;9.896;2022-07-29T06:20:06;3.92;;;1.48;;
1402;SDS011;696;48.546;9.896;2022-07-29T06:22:31;1.63;;;1.20;;
1402;SDS011;696;48.546;9.896;2022-07-29T06:24:57;3.65;;;1.52;;
1402;SDS011;696;48.546;9.896;2022-07-29T06:27:22;3.55;;;2.00;;
1402;SDS011;696;48.546;9.896;2022-07-29T06:29:47;4.53;;;1.73;;
1402;SDS011;696;48.546;9.896;2022-07-29T06:32:13;9.43;;;1.98;;
1402;SDS011;696;48.546;9.896;2022-07-29T06:34:38;17.13;;;1.77;;
1402;SDS011;696;48.546;9.896;2022-07-29T06:37:07;9.15;;;2.97;;
1402;SDS011;696;48.546;9.896;2022-07-29T06:39:34;3.92;;;2.13;;
1402;SDS011;696;48.546;9.896;2022-07-29T06:42:01;1.83;;;1.42;;
1402;SDS011;696;48.546;9.896;2022-07-29T06:44:26;7.15;;;1.73;;
1402;SDS011;696;48.546;9.896;2022-07-29T06:46:52;7.45;;;2.20;;
1402;SDS011;696;48.546;9.896;2022-07-29T06:49:18;10.73;;;2.22;;
1402;SDS011;696;48.546;9.896;2022-07-29T06:51:43;2.17;;;1.83;;
1402;SDS011;696;48.546;9.896;2022-07-29T06:54:08;4.47;;;2.58;;
1402;SDS011;696;48.546;9.896;2022-07-29T06:56:35;3.35;;;1.80;;
1402;SDS011;696;48.546;9.896;2022-07-29T06:59:02;5.88;;;2.58;;
1402;SDS011;696;48.546;9.896;2022-07-29T07:01:28;5.32;;;2.08;;
1402;SDS011;696;48.546;9.896;2022-07-29T07:03:54;2.95;;;1.90;;
1402;SDS011;696;48.546;9.896;2022-07-29T07:06:19;2.10;;;1.83;;
1402;SDS011;696;48.546;9.896;2022-07-29T07:08:45;2.60;;;1.80;;
1402;SDS011;696;48.546;9.896;2022-07-29T07:11:10;5.70;;;2.28;;
1402;SDS011;696;48.546;9.896;2022-07-29T07:13:36;7.22;;;2.42;;
1402;SDS011;696;48.546;9.896;2022-07-29T07:16:01;4.97;;;2.33;;
1402;SDS011;696;48.546;9.896;2022-07-29T07:18:27;5.18;;;2.78;;
1402;SDS011;696;48.546;9.896;2022-07-29T07:20:53;5.15;;;2.65;;
1402;SDS011;696;48.546;9.896;2022-07-29T07:23:18;6.88;;;3.35;;
1402;SDS011;696;48.546;9.896;2022-07-29T07:25:43;5.93;;;3.05;;
1402;SDS011;696;48.546;9.896;2022-07-29T07:28:09;6.88;;;3.20;;
1402;SDS011;696;48.546;9.896;2022-07-29T07:30:34;4.68;;;2.42;;
1402;SDS011;696;48.546;9.896;2022-07-29T07:33:00;6.45;;;3.60;;
1402;SDS011;696;48.546;9.896;2022-07-29T07:35:25;6.63;;;3.38;;
1402;SDS011;696;48.546;9.896;2022-07-29T07:37:52;7.85;;;3.35;;
1402;SDS011;696;48.546;9.896;2022-07-29T07:40:18;3.80;;;2.85;;
1402;SDS011;696;48.546;9.896;2022-07-29T07:42:43;3.53;;;2.65;;
1402;SDS011;696;48.546;9.896;2022-07-29T07:45:09;3.97;;;2.60;;
1402;SDS011;696;48.546;9.896;2022-07-29T07:47:36;3.65;;;1.80;;
1402;SDS011;696;48.546;9.896;2022-07-29T07:50:02;5.03;;;3.38;;
1402;SDS011;696;48.546;9.896;2022-07-29T07:52:31;6.65;;;2.92;;
1402;SDS011;696;48.546;9.896;2022-07-29T07:54:57;5.55;;;2.95;;
1402;SDS011;696;48.546;9.896;2022-07-29T07:57:22;7.25;;;3.45;;
1402;SDS011;696;48.546;9.896;2022-07-29T07:59:47;6.47;;;3.38;;
1402;SDS011;696;48.546;9.896;2022-07-29T08:02:13;5.75;;;3.20;;
1402;SDS011;696;48.546;9.896;2022-07-29T08:04:38;6.57;;;3.55;;
1402;SDS011;696;48.546;9.896;2022-07-29T08:07:05;5.20;;;2.97;;
1402;SDS011;696;48.546;9.896;2022-07-29T08:09:31;5.53;;;2.75;;
1402;SDS011;696;48.546;9.896;2022-07-29T08:11:57;14.18;;;4.00;;
1402;SDS011;696;48.546;9.896;2022-07-29T08:14:24;12.98;;;3.83;;
1402;SDS011;696;48.546;9.896;2022-07-29T08:16:49;4.18;;;2.85;;
1402;SDS011;696;48.546;9.896;2022-07-29T08:19:16;4.07;;;2.80;;
1402;SDS011;696;48.546;9.896;2022-07-29T08:21:41;7.55;;;3.42;;
1402;SDS011;696;48.546;9.896;2022-07-29T08:24:06;4.93;;;2.97;;
1402;SDS011;696;48.546;9.896;2022-07-29T08:26:50;8.40;;;3.83;;
1402;SDS011;696;48.546;9.896;2022-07-29T08:29:16;6.78;;;4.10;;
1402;SDS011;696;48.546;9.896;2022-07-29T08:31:41;7.00;;;3.30;;
1402;SDS011;696;48.546;9.896;2022-07-29T08:34:07;8.10;;;3.53;;
1402;SDS011;696;48.546;9.896;2022-07-29T08:36:33;5.43;;;3.05;;
1402;SDS011;696;48.546;9.896;2022-07-29T08:38:59;9.15;;;3.40;;
1402;SDS011;696;48.546;9.896;2022-07-29T08:41:25;8.52;;;3.70;;
1402;SDS011;696;48.546;9.896;2022-07-29T08:43:50;8.32;;;3.30;;
1402;SDS011;696;48.546;9.896;2022-07-29T08:46:17;4.90;;;3.08;;
1402;SDS011;696;48.546;9.896;2022-07-29T08:48:43;5.88;;;3.42;;
1402;SDS011;696;48.546;9.896;2022-07-29T08:51:08;7.28;;;2.70;;
1402;SDS011;696;48.546;9.896;2022-07-29T08:53:44;4.57;;;2.75;;
1402;SDS011;696;48.546;9.896;2022-07-29T08:56:12;4.60;;;3.00;;
1402;SDS011;696;48.546;9.896;2022-07-29T08:58:44;6.25;;;2.55;;
1402;SDS011;696;48.546;9.896;2022-07-29T09:01:12;3.58;;;2.25;;
1402;SDS011;696;48.546;9.896;2022-07-29T09:03:39;3.72;;;2.15;;
1402;SDS011;696;48.546;9.896;2022-07-29T09:06:05;3.00;;;2.05;;
1402;SDS011;696;48.546;9.896;2022-07-29T09:08:32;3.60;;;2.05;;
1402;SDS011;696;48.546;9.896;2022-07-29T09:10:58;5.38;;;2.58;;
1402;SDS011;696;48.546;9.896;2022-07-29T09:13:25;3.25;;;1.75;;
1402;SDS011;696;48.546;9.896;2022-07-29T09:15:50;2.92;;;1.67;;
1402;SDS011;696;48.546;9.896;2022-07-29T09:18:32;3.08;;;1.80;;
1402;SDS011;696;48.546;9.896;2022-07-29T09:20:58;6.68;;;2.55;;
1402;SDS011;696;48.546;9.896;2022-07-29T09:23:58;3.15;;;1.85;;
1402;SDS011;696;48.546;9.896;2022-07-29T09:26:29;7.68;;;3.05;;
1402;SDS011;696;48.546;9.896;2022-07-29T09:28:56;3.97;;;1.90;;
1402;SDS011;696;48.546;9.896;2022-07-29T09:31:41;7.07;;;2.03;;
1402;SDS011;696;48.546;9.896;2022-07-29T09:34:08;3.90;;;1.52;;
1402;SDS011;696;48.546;9.896;2022-07-29T09:36:38;7.55;;;1.77;;
1402;SDS011;696;48.546;9.896;2022-07-29T09:39:10;3.42;;;1.58;;
1402;SDS011;696;48.546;9.896;2022-07-29T09:41:48;1.35;;;1.25;;
1402;SDS011;696;48.546;9.896;2022-07-29T09:44:17;3.97;;;2.10;;
1402;SDS011;696;48.546;9.896;2022-07-29T09:46:59;2.92;;;2.25;;
1402;SDS011;696;48.546;9.896;2022-07-29T09:49:30;4.05;;;1.65;;
1402;SDS011;696;48.546;9.896;2022-07-29T09:52:06;3.20;;;1.88;;
1402;SDS011;696;48.546;9.896;2022-07-29T09:54:32;1.50;;;1.20;;
1402;SDS011;696;48.546;9.896;2022-07-29T09:57:05;1.98;;;1.50;;
1402;SDS011;696;48.546;9.896;2022-07-29T09:59:34;4.72;;;2.15;;
1402;SDS011;696;48.546;9.896;2022-07-29T10:02:00;1.80;;;1.35;;
1402;SDS011;696;48.546;9.896;2022-07-29T10:04:41;1.63;;;1.48;;
1402;SDS011;696;48.546;9.896;2022-07-29T10:07:07;2.58;;;1.52;;
1402;SDS011;696;48.546;9.896;2022-07-29T10:09:33;3.70;;;1.70;;
1402;SDS011;696;48.546;9.896;2022-07-29T10:12:17;2.65;;;1.40;;
1402;SDS011;696;48.546;9.896;2022-07-29T10:14:43;1.55;;;1.45;;
1402;SDS011;696;48.546;9.896;2022-07-29T10:17:09;4.97;;;1.50;;
1402;SDS011;696;48.546;9.896;2022-07-29T10:19:36;1.42;;;1.15;;
1402;SDS011;696;48.546;9.896;2022-07-29T10:22:11;9.40;;;1.80;;
1402;SDS011;696;48.546;9.896;2022-07-29T10:24:37;2.58;;;1.63;;
1402;SDS011;696;48.546;9.896;2022-07-29T10:27:04;2.75;;;1.63;;
1402;SDS011;696;48.546;9.896;2022-07-29T10:29:30;2.10;;;1.33;;
1402;SDS011;696;48.546;9.896;2022-07-29T10:32:07;2.35;;;1.33;;
1402;SDS011;696;48.546;9.896;2022-07-29T10:43:31;2.97;;;1.63;;
1402;SDS011;696;48.546;9.896;2022-07-29T10:46:00;6.85;;;1.40;;
1402;SDS011;696;48.546;9.896;2022-07-29T10:48:27;1.70;;;1.17;;
1402;SDS011;696;48.546;9.896;2022-07-29T10:50:59;3.47;;;2.05;;
1402;SDS011;696;48.546;9.896;2022-07-29T10:56:29;1.60;;;1.27;;
1402;SDS011;696;48.546;9.896;2022-07-29T11:01:43;2.20;;;1.38;;
1402;SDS011;696;48.546;9.896;2022-07-29T11:04:09;2.13;;;1.30;;
1402;SDS011;696;48.546;9.896;2022-07-29T11:07:20;1.30;;;0.95;;
1402;SDS011;696;48.546;9.896;2022-07-29T11:09:29;4.47;;;1.45;;
1402;SDS011;696;48.546;9.896;2022-07-29T11:11:55;2.40;;;1.40;;
1402;SDS011;696;48.546;9.896;2022-07-29T11:17:21;1.92;;;1.30;;
1402;SDS011;696;48.546;9.896;2022-07-29T11:19:46;3.33;;;1.67;;
1402;SDS011;696;48.546;9.896;2022-07-29T11:22:12;2.33;;;1.23;;
1402;SDS011;696;48.546;9.896;2022-07-29T11:25:13;2.25;;;1.42;;
1402;SDS011;696;48.546;9.896;2022-07-29T11:27:42;1.70;;;1.40;;
1402;SDS011;696;48.546;9.896;2022-07-29T11:30:08;2.58;;;1.20;;
1402;SDS011;696;48.546;9.896;2022-07-29T11:32:38;1.90;;;1.30;;
1402;SDS011;696;48.546;9.896;2022-07-29T11:35:23;3.15;;;1.67;;
1402;SDS011;696;48.546;9.896;2022-07-29T11:43:54;1.75;;;1.05;;
1402;SDS011;696;48.546;9.896;2022-07-29T11:49:18;2.00;;;1.48;;
1402;SDS011;696;48.546;9.896;2022-07-29T11:51:49;2.97;;;1.38;;
1402;SDS011;696;48.546;9.896;2022-07-29T11:54:16;3.15;;;1.70;;
1402;SDS011;696;48.546;9.896;2022-07-29T11:56:48;4.70;;;1.40;;
1402;SDS011;696;48.546;9.896;2022-07-29T11:59:14;2.70;;;1.40;;
1402;SDS011;696;48.546;9.896;2022-07-29T12:01:51;2.83;;;1.63;;
1402;SDS011;696;48.546;9.896;2022-07-29T12:04:17;8.77;;;1.92;;
1402;SDS011;696;48.546;9.896;2022-07-29T12:06:42;3.63;;;1.73;;
1402;SDS011;696;48.546;9.896;2022-07-29T12:09:08;3.58;;;2.08;;
1402;SDS011;696;48.546;9.896;2022-07-29T12:11:33;7.57;;;2.05;;
1402;SDS011;696;48.546;9.896;2022-07-29T12:13:59;3.47;;;1.98;;
1402;SDS011;696;48.546;9.896;2022-07-29T12:16:33;6.85;;;2.40;;
1402;SDS011;696;48.546;9.896;2022-07-29T12:19:00;5.13;;;2.40;;
1402;SDS011;696;48.546;9.896;2022-07-29T12:21:28;2.70;;;1.92;;
1402;SDS011;696;48.546;9.896;2022-07-29T12:24:13;4.43;;;2.42;;
1402;SDS011;696;48.546;9.896;2022-07-29T12:26:52;2.80;;;1.77;;
1402;SDS011;696;48.546;9.896;2022-07-29T12:29:18;5.68;;;1.95;;
1402;SDS011;696;48.546;9.896;2022-07-29T12:31:44;2.22;;;1.73;;
1402;SDS011;696;48.546;9.896;2022-07-29T12:34:11;2.25;;;1.80;;
1402;SDS011;696;48.546;9.896;2022-07-29T12:36:37;3.55;;;1.80;;
1402;SDS011;696;48.546;9.896;2022-07-29T12:39:03;2.78;;;2.00;;
1402;SDS011;696;48.546;9.896;2022-07-29T12:41:29;1.85;;;1.40;;
1402;SDS011;696;48.546;9.896;2022-07-29T12:43:55;3.95;;;2.08;;
1402;SDS011;696;48.546;9.896;2022-07-29T12:46:21;3.03;;;1.83;;
1402;SDS011;696;48.546;9.896;2022-07-29T12:48:49;4.20;;;1.80;;
1402;SDS011;696;48.546;9.896;2022-07-29T12:51:25;2.58;;;2.28;;
1402;SDS011;696;48.546;9.896;2022-07-29T12:54:03;4.88;;;2.33;;
1402;SDS011;696;48.546;9.896;2022-07-29T12:56:32;2.13;;;1.70;;
1402;SDS011;696;48.546;9.896;2022-07-29T12:58:57;3.22;;;2.22;;
1402;SDS011;696;48.546;9.896;2022-07-29T13:01:23;2.97;;;1.77;;
1402;SDS011;696;48.546;9.896;2022-07-29T13:03:57;4.15;;;2.67;;
1402;SDS011;696;48.546;9.896;2022-07-29T13:06:38;3.15;;;2.00;;
1402;SDS011;696;48.546;9.896;2022-07-29T13:09:06;4.55;;;2.60;;
1402;SDS011;696;48.546;9.896;2022-07-29T13:11:51;6.40;;;2.53;;
1402;SDS011;696;48.546;9.896;2022-07-29T13:17:00;3.60;;;1.98;;
1402;SDS011;696;48.546;9.896;2022-07-29T13:19:35;6.32;;;3.53;;
1402;SDS011;696;48.546;9.896;2022-07-29T13:22:02;7.00;;;3.25;;
1402;SDS011;696;48.546;9.896;2022-07-29T13:24:27;7.30;;;3.83;;
1402;SDS011;696;48.546;9.896;2022-07-29T13:26:53;5.47;;;3.42;;
1402;SDS011;696;48.546;9.896;2022-07-29T13:29:18;7.32;;;3.95;;
1402;SDS011;696;48.546;9.896;2022-07-29T13:31:43;10.02;;;3.15;;
1402;SDS011;696;48.546;9.896;2022-07-29T13:34:09;6.35;;;3.90;;
1402;SDS011;696;48.546;9.896;2022-07-29T13:36:34;11.63;;;3.65;;
1402;SDS011;696;48.546;9.896;2022-07-29T13:39:00;6.05;;;3.65;;
1402;SDS011;696;48.546;9.896;2022-07-29T13:41:27;5.97;;;3.58;;
1402;SDS011;696;48.546;9.896;2022-07-29T13:43:52;6.97;;;3.33;;
1402;SDS011;696;48.546;9.896;2022-07-29T13:46:18;10.20;;;3.33;;
1402;SDS011;696;48.546;9.896;2022-07-29T13:48:43;4.68;;;2.80;;
1402;SDS011;696;48.546;9.896;2022-07-29T13:51:08;7.88;;;3.33;;
1402;SDS011;696;48.546;9.896;2022-07-29T13:53:34;5.40;;;2.95;;
1402;SDS011;696;48.546;9.896;2022-07-29T13:55:59;4.70;;;3.00;;
1402;SDS011;696;48.546;9.896;2022-07-29T13:58:25;4.03;;;2.88;;
1402;SDS011;696;48.546;9.896;2022-07-29T14:00:50;5.05;;;2.45;;
1402;SDS011;696;48.546;9.896;2022-07-29T14:03:16;4.03;;;3.13;;
1402;SDS011;696;48.546;9.896;2022-07-29T14:05:41;3.28;;;2.63;;
1402;SDS011;696;48.546;9.896;2022-07-29T14:08:06;6.13;;;2.50;;
1402;SDS011;696;48.546;9.896;2022-07-29T14:10:32;5.30;;;3.10;;
1402;SDS011;696;48.546;9.896;2022-07-29T14:12:57;3.60;;;2.95;;
1402;SDS011;696;48.546;9.896;2022-07-29T14:15:22;5.10;;;3.05;;
1402;SDS011;696;48.546;9.896;2022-07-29T14:17:48;4.57;;;2.72;;
1402;SDS011;696;48.546;9.896;2022-07-29T14:20:13;6.30;;;2.95;;
1402;SDS011;696;48.546;9.896;2022-07-29T14:22:40;6.20;;;2.92;;
1402;SDS011;696;48.546;9.896;2022-07-29T14:25:07;6.38;;;3.10;;
1402;SDS011;696;48.546;9.896;2022-07-29T14:27:33;3.03;;;2.40;;
1402;SDS011;696;48.546;9.896;2022-07-29T14:29:59;3.80;;;2.70;;
1402;SDS011;696;48.546;9.896;2022-07-29T14:32:24;5.97;;;2.75;;
1402;SDS011;696;48.546;9.896;2022-07-29T14:34:50;13.10;;;2.45;;
1402;SDS011;696;48.546;9.896;2022-07-29T14:37:15;4.53;;;2.55;;
1402;SDS011;696;48.546;9.896;2022-07-29T14:39:41;3.65;;;2.47;;
1402;SDS011;696;48.546;9.896;2022-07-29T14:42:06;3.58;;;2.58;;
1402;SDS011;696;48.546;9.896;2022-07-29T14:44:32;3.85;;;2.75;;
1402;SDS011;696;48.546;9.896;2022-07-29T14:46:58;6.50;;;3.75;;
1402;SDS011;696;48.546;9.896;2022-07-29T14:49:25;5.15;;;3.08;;
1402;SDS011;696;48.546;9.896;2022-07-29T14:51:51;5.20;;;2.70;;
1402;SDS011;696;48.546;9.896;2022-07-29T14:54:16;9.43;;;3.03;;
1402;SDS011;696;48.546;9.896;2022-07-29T14:56:42;6.47;;;2.95;;
1402;SDS011;696;48.546;9.896;2022-07-29T14:59:07;6.07;;;3.03;;
1402;SDS011;696;48.546;9.896;2022-07-29T15:01:32;3.00;;;2.38;;
1402;SDS011;696;48.546;9.896;2022-07-29T15:03:58;8.57;;;2.50;;
1402;SDS011;696;48.546;9.896;2022-07-29T15:06:23;3.40;;;2.65;;
1402;SDS011;696;48.546;9.896;2022-07-29T15:08:49;4.47;;;3.15;;
1402;SDS011;696;48.546;9.896;2022-07-29T15:11:14;4.97;;;2.83;;
1402;SDS011;696;48.546;9.896;2022-07-29T15:13:39;5.07;;;2.40;;
1402;SDS011;696;48.546;9.896;2022-07-29T15:16:05;6.30;;;2.85;;
1402;SDS011;696;48.546;9.896;2022-07-29T15:18:30;6.07;;;3.47;;
1402;SDS011;696;48.546;9.896;2022-07-29T15:20:56;3.58;;;2.92;;
1402;SDS011;696;48.546;9.896;2022-07-29T15:23:21;4.78;;;3.25;;
1402;SDS011;696;48.546;9.896;2022-07-29T15:25:46;3.60;;;2.80;;
1402;SDS011;696;48.546;9.896;2022-07-29T15:28:12;5.13;;;3.20;;
1402;SDS011;696;48.546;9.896;2022-07-29T15:30:37;5.15;;;2.97;;
1402;SDS011;696;48.546;9.896;2022-07-29T15:33:05;4.25;;;2.78;;
1402;SDS011;696;48.546;9.896;2022-07-29T15:35:31;6.18;;;3.13;;
1402;SDS011;696;48.546;9.896;2022-07-29T15:37:57;5.07;;;3.10;;
1402;SDS011;696;48.546;9.896;2022-07-29T15:40:22;9.18;;;3.47;;
1402;SDS011;696;48.546;9.896;2022-07-29T15:42:48;4.88;;;2.80;;
1402;SDS011;696;48.546;9.896;2022-07-29T15:45:13;8.25;;;3.38;;
1402;SDS011;696;48.546;9.896;2022-07-29T15:47:38;5.03;;;2.88;;
1402;SDS011;696;48.546;9.896;2022-07-29T15:50:04;10.48;;;3.17;;
1402;SDS011;696;48.546;9.896;2022-07-29T15:52:31;4.07;;;2.78;;
1402;SDS011;696;48.546;9.896;2022-07-29T15:54:56;5.65;;;2.88;;
1402;SDS011;696;48.546;9.896;2022-07-29T15:57:22;3.83;;;2.28;;
1402;SDS011;696;48.546;9.896;2022-07-29T15:59:48;4.70;;;2.58;;
1402;SDS011;696;48.546;9.896;2022-07-29T16:02:14;4.15;;;2.55;;
1402;SDS011;696;48.546;9.896;2022-07-29T16:04:39;5.03;;;2.67;;
1402;SDS011;696;48.546;9.896;2022-07-29T16:07:05;3.65;;;2.30;;
1402;SDS011;696;48.546;9.896;2022-07-29T16:09:31;3.47;;;2.40;;
1402;SDS011;696;48.546;9.896;2022-07-29T16:11:56;8.60;;;2.30;;
1402;SDS011;696;48.546;9.896;2022-07-29T16:14:21;5.70;;;3.00;;
1402;SDS011;696;48.546;9.896;2022-07-29T16:16:47;12.23;;;2.78;;